Caldwell, ID

2:07 PM MDT on June 26, 2017 (GMT -0600)
Caldwell Industrial

Weather History for KEUL - February, 2013

Change the Weather History Date:

Thursday, February 7, 2013

  Actual Average (KBOI) Record (KBOI)
Temperature  
Mean Temperature 37 °F -  
Max Temperature 46 °F 40 °F 65 °F (2015)
Min Temperature 28 °F 24 °F -13 °F (1989)
Degree Days  
Heating Degree Days 28    
Moisture  
Dew Point 26 °F    
Average Humidity 66    
Maximum Humidity 86    
Minimum Humidity 53    
Precipitation  
Precipitation 0.00 in - - ()
Sea Level Pressure  
Sea Level Pressure 29.96 in    
Wind  
Wind Speed 9 mph (SSW)    
Max Wind Speed 21 mph    
Max Gust Speed 25 mph    
Visibility 9 miles    
Events      
Averages and records for this station are not official NWS values.
T = Trace of Precipitation, MM = Missing Value Source: NWS Daily Summary

Daily Weather History Graph

Daily Weather History Graph

Search for Another Location

Airport or City:

Trip Planner

Search our weather history database for the weather conditions in past years. The results will help you decide how hot, cold, wet, or windy it might be!

Date:

Astronomy

Feb. 07, 2013 Rise Set
Actual Time 7:55 AM MST 6:06 PM MST
Civil Twilight 7:25 AM MST 6:36 PM MST
Nautical Twilight 6:51 AM MST 7:10 PM MST
Astronomical Twilight 6:18 AM MST 7:43 PM MST
Moon 5:41 AM MST (2/7) 3:33 PM MST (2/7)
Length of Visible Light 11h 10m
Length of Day
10h 10m
Waning Crescent, 8% of the Moon is Illuminated
Feb 7
Waning Crescent
Feb 10
New
Feb 17
First Quarter
Feb 25
Full
Mar 4
Last Quarter

Hourly Weather History & Observations

Time (MST) Temp. Windchill Dew Point Humidity Pressure Visibility Wind Dir Wind Speed Gust Speed Precip Events Conditions
12:15 AM 28.4 °F 22.2 °F 24.8 °F 86% 30.08 in 0.2 mi NW 5.8 mph - N/A   Overcast
12:35 AM 28.4 °F - 24.8 °F 86% 30.07 in 0.2 mi Calm Calm - N/A   Overcast
12:55 AM 28.4 °F - 24.8 °F 86% 30.07 in 0.2 mi Calm Calm - N/A   Overcast
1:15 AM 28.4 °F - 24.8 °F 86% 30.05 in 3.0 mi Calm Calm - N/A   Scattered Clouds
1:35 AM 28.4 °F 24.6 °F 24.8 °F 86% 30.05 in 4.0 mi WSW 3.5 mph - N/A   Partly Cloudy
1:55 AM 28.4 °F 22.2 °F 24.8 °F 86% 30.04 in 5.0 mi South 5.8 mph - N/A   Scattered Clouds
2:15 AM 28.4 °F 24.6 °F 24.8 °F 86% 30.03 in 7.0 mi SSE 3.5 mph - N/A   Partly Cloudy
2:35 AM 30.2 °F 25.4 °F 26.6 °F 86% 30.03 in 10.0 mi SSW 4.6 mph - N/A   Clear
2:55 AM 33.8 °F 28.6 °F 26.6 °F 75% 30.03 in 10.0 mi South 5.8 mph - N/A   Clear
3:15 AM 35.6 °F 28.0 °F 24.8 °F 65% 30.02 in 10.0 mi SSE 10.4 mph - N/A   Clear
3:35 AM 35.6 °F 26.6 °F 24.8 °F 65% 30.01 in 10.0 mi South 13.8 mph - N/A   Clear
3:55 AM 35.6 °F 26.2 °F 24.8 °F 65% 30.00 in 10.0 mi South 15.0 mph - N/A   Clear
4:15 AM 35.6 °F 25.9 °F 24.8 °F 65% 29.99 in 10.0 mi SSE 16.1 mph 23.0 mph N/A   Clear
4:35 AM 35.6 °F 25.2 °F 24.8 °F 65% 29.98 in 10.0 mi South 18.4 mph 25.3 mph N/A   Clear
4:55 AM 35.6 °F 24.5 °F 24.8 °F 65% 29.98 in 10.0 mi South 20.7 mph 25.3 mph N/A   Clear
5:15 AM 35.6 °F 25.5 °F 24.8 °F 65% 29.98 in 10.0 mi South 17.3 mph - N/A   Clear
5:35 AM 35.6 °F 25.5 °F 24.8 °F 65% 29.97 in 10.0 mi South 17.3 mph 23.0 mph N/A   Clear
5:55 AM 35.6 °F 25.9 °F 24.8 °F 65% 29.97 in 10.0 mi South 16.1 mph - N/A   Clear
6:15 AM 35.6 °F 25.2 °F 23.0 °F 60% 29.97 in 10.0 mi South 18.4 mph 24.2 mph N/A   Clear
6:35 AM 35.6 °F 26.6 °F 24.8 °F 65% 29.97 in 10.0 mi South 13.8 mph - N/A   Clear
6:55 AM 35.6 °F 26.6 °F 24.8 °F 65% 29.97 in 10.0 mi South 13.8 mph - N/A   Clear
7:15 AM 35.6 °F 25.5 °F 23.0 °F 60% 29.97 in 10.0 mi SSE 17.3 mph 21.9 mph N/A   Clear
7:35 AM 35.6 °F 25.9 °F 23.0 °F 60% 29.97 in 10.0 mi South 16.1 mph 20.7 mph N/A   Clear
7:55 AM 35.6 °F 25.2 °F 23.0 °F 60% 29.96 in 10.0 mi South 18.4 mph - N/A   Clear
8:15 AM 35.6 °F 25.2 °F 23.0 °F 60% 29.96 in 10.0 mi South 18.4 mph - N/A   Clear
8:35 AM 35.6 °F 24.8 °F 23.0 °F 60% 29.96 in 10.0 mi South 19.6 mph - N/A   Clear
8:55 AM 35.6 °F 25.5 °F 23.0 °F 60% 29.97 in 10.0 mi South 17.3 mph - N/A   Clear
9:15 AM 35.6 °F 25.2 °F 23.0 °F 60% 29.97 in 10.0 mi South 18.4 mph - N/A   Clear
9:35 AM 35.6 °F 25.2 °F 23.0 °F 60% 29.97 in 10.0 mi South 18.4 mph - N/A   Clear
9:55 AM 35.6 °F 25.9 °F 24.8 °F 65% 29.97 in 10.0 mi South 16.1 mph 21.9 mph N/A   Clear
10:15 AM 35.6 °F 25.9 °F 24.8 °F 65% 29.97 in 10.0 mi South 16.1 mph - N/A   Clear
10:35 AM 37.4 °F 28.2 °F 24.8 °F 60% 29.96 in 10.0 mi South 16.1 mph 19.6 mph N/A   Clear
10:55 AM 37.4 °F 28.9 °F 24.8 °F 60% 29.96 in 10.0 mi South 13.8 mph - N/A   Clear
11:15 AM 37.4 °F 28.2 °F 24.8 °F 60% 29.96 in 10.0 mi SSE 16.1 mph - N/A   Clear
11:35 AM 39.2 °F 32.0 °F 24.8 °F 56% 29.96 in 10.0 mi South 11.5 mph - N/A   Clear
11:55 AM 39.2 °F 30.8 °F 24.8 °F 56% 29.96 in 10.0 mi South 15.0 mph 20.7 mph N/A   Clear
12:15 PM 41.0 °F 32.8 °F 26.6 °F 57% 29.96 in 10.0 mi South 16.1 mph 23.0 mph N/A   Clear
12:35 PM 41.0 °F 32.5 °F 26.6 °F 57% 29.95 in 10.0 mi South 17.3 mph 21.9 mph N/A   Clear
12:55 PM 42.8 °F 35.1 °F 26.6 °F 53% 29.94 in 10.0 mi South 16.1 mph 20.7 mph N/A   Scattered Clouds
1:15 PM 42.8 °F 35.1 °F 26.6 °F 53% 29.94 in 10.0 mi South 16.1 mph - N/A   Scattered Clouds
1:35 PM 42.8 °F 36.6 °F 26.6 °F 53% 29.93 in 10.0 mi South 11.5 mph 19.6 mph N/A   Partly Cloudy
1:55 PM 42.8 °F 35.8 °F 28.4 °F 57% 29.93 in 10.0 mi South 13.8 mph - N/A   Clear
2:15 PM 42.8 °F 36.2 °F 26.6 °F 53% 29.92 in 10.0 mi SSE 12.7 mph - N/A   Mostly Cloudy
2:35 PM 44.6 °F 38.1 °F 28.4 °F 53% 29.91 in 10.0 mi South 13.8 mph - N/A   Overcast
2:55 PM 44.6 °F 38.4 °F 28.4 °F 53% 29.90 in 10.0 mi SSE 12.7 mph - N/A   Scattered Clouds
3:15 PM 44.6 °F 41.4 °F 30.2 °F 57% 29.90 in 10.0 mi NE 5.8 mph - N/A   Clear
3:35 PM 44.6 °F 41.4 °F 30.2 °F 57% 29.90 in 10.0 mi NE 5.8 mph - N/A   Partly Cloudy
3:55 PM 46.4 °F 44.3 °F 30.2 °F 53% 29.90 in 10.0 mi North 4.6 mph - N/A   Partly Cloudy
4:35 PM 44.6 °F 43.1 °F 30.2 °F 57% 29.91 in 10.0 mi North 3.5 mph - N/A   Clear
4:55 PM 44.6 °F 43.1 °F 30.2 °F 57% 29.91 in 10.0 mi NNW 3.5 mph - N/A   Clear
5:15 PM 41.0 °F 36.4 °F 30.2 °F 65% 29.91 in 10.0 mi NW 6.9 mph - N/A   Mostly Cloudy
5:35 PM 39.2 °F 33.6 °F 30.2 °F 70% 29.91 in 10.0 mi NW 8.1 mph - N/A   Overcast
5:55 PM 39.2 °F 33.6 °F 30.2 °F 70% 29.92 in 10.0 mi NW 8.1 mph - N/A   Overcast
6:15 PM 39.2 °F 33.0 °F 30.2 °F 70% 29.93 in 10.0 mi NW 9.2 mph - N/A   Overcast
6:35 PM 37.4 °F 32.1 °F 28.4 °F 70% 29.93 in 10.0 mi NW 6.9 mph - N/A   Overcast
6:55 PM 37.4 °F 32.1 °F 28.4 °F 70% 29.93 in 10.0 mi NNW 6.9 mph - N/A   Overcast
7:15 PM 37.4 °F 32.8 °F 28.4 °F 70% 29.93 in 10.0 mi North 5.8 mph - N/A   Overcast
7:35 PM 37.4 °F 32.8 °F 28.4 °F 70% 29.92 in 10.0 mi North 5.8 mph - N/A   Overcast
7:55 PM 37.4 °F 33.8 °F 28.4 °F 70% 29.92 in 10.0 mi North 4.6 mph - N/A   Overcast
8:15 PM 37.4 °F - 28.4 °F 70% 29.92 in 10.0 mi Calm Calm - N/A   Overcast
8:35 PM 37.4 °F 34.9 °F 28.4 °F 70% 29.92 in 10.0 mi WSW 3.5 mph - N/A   Overcast
8:55 PM 35.6 °F 29.9 °F 28.4 °F 75% 29.92 in 10.0 mi WNW 6.9 mph - N/A   Overcast
9:15 PM 37.4 °F 33.8 °F 28.4 °F 70% 29.92 in 10.0 mi WNW 4.6 mph - N/A   Overcast
9:35 PM 35.6 °F - 28.4 °F 75% 29.93 in 10.0 mi Calm Calm - N/A   Overcast
9:55 PM 35.6 °F 31.7 °F 28.4 °F 75% 29.93 in 10.0 mi SSW 4.6 mph - N/A   Overcast
10:15 PM 35.6 °F 29.9 °F 28.4 °F 75% 29.93 in 10.0 mi WSW 6.9 mph - N/A   Overcast
10:35 PM 33.8 °F 26.4 °F 28.4 °F 81% 29.93 in 10.0 mi West 9.2 mph - N/A   Overcast
10:55 PM 33.8 °F 27.7 °F 26.6 °F 75% 29.93 in 10.0 mi West 6.9 mph - N/A   Overcast
11:15 PM 33.8 °F 28.6 °F 26.6 °F 75% 29.93 in 10.0 mi West 5.8 mph - N/A   Overcast
11:55 PM 33.8 °F 26.4 °F 26.6 °F 75% 29.93 in 10.0 mi WNW 9.2 mph - N/A   Overcast